Airfield :
LOGIN :

Register | Disclaimer

   EN    FR    IT 

 










Legend :    VFR   Marginal VFR   IFR   Intensive IFR   Very Intensive IFR
Visi :
Ceiling :
>= 8 km
>= 3000ft
5 to 8 km
1000 to 3000 ft
1500m to 5 km
500 to 1000 ft
800 to 1500m
200 to 500 ft
< 800m
< 200 ft
Symbols :   Thunderstorms  Fog  Heavy snow  Heavy precipitations  Wind > 20 kt
SIGMETs :     Misc.  Thunderstorms  Icing  Turbulence  Mountain Waves  Volcanic Ashes







- Airport Elevation : 1487 ft
- IATA code : MUC


EDDM - München Franz Josef Strauss

CURRENT METAR :
  • 130520Z 06008KT 9999 BKN014 M01/M04 Q1016 R88/190095 NOSIG

EXPIRED METARs :
  • 130450Z 05008KT 030V090 9999 BKN015 M01/M04 Q1016 R88/190095 TEMPO BKN012
  • 130420Z 06008KT 9999 BKN015 M01/M03 Q1016 R88/190095 TEMPO BKN012
  • 130350Z 06008KT 030V090 9999 BKN015 M01/M03 Q1017 R88/190095 TEMPO BKN012
  • 130320Z 06009KT 9999 FEW009 BKN015 M01/M03 Q1017 R88/190095 NOSIG
  • 130250Z 05009KT 020V080 9999 SCT009 BKN014 M01/M03 Q1017 R88/190095 NOSIG

TAF TAF EDDM
Valid from the 13 at 06:00 until the 14 at 12:00 UTC


130500Z 1306/1412 08012KT 9999 FEW012 BKN020
PROB30
TEMPO 1306/1308 4000 -SG BKN008
TEMPO 1308/1312 BKN012
BECMG 1315/1317 08007KT
TEMPO 1320/1408 BKN012
No reported NOTAMs for that airfield.



MET'MAP, your aeronautical weather chart ! - Copyright ORBIFLY December 2007 - Disclaimer

ORBIFLY MET'MAP TEAM :

Programming & Development : Alexandra Zaïnal
Concept & Development : Baudouin d'Aumeries
Co-Development & Prog : Marc-Olivier Méhu
Technical & hardware support : Manuel Goepfert

Contact : metmap@orbifly.com




SOURCES & CREDITS :

   NOAA